Crane Island Airstrip

CKR · Washington, Estados Unidos

História da METAR CKR · Crane Island Airstrip

Abaixo você vê METARs dos últimos dias. Selecione um ano para navegar pelos METARs mais antigos, a partir do ano 2007.

6 de dezembro de 2022

Hora Código Clima Temp. Visibilidade Tecto Vento METAR/SPECI
09:53
M
4 °C 10 mi 2.200 ft 240° 240° 3 kt METAR KFHR 061753Z AUTO 24003KT 10SM OVC022 04/03 A3013 RMK AO2 RAE20 SLP203 P0001 60003 T00440033 10044 20028 51013
09:53
M
4 °C 10 mi 2.200 ft 240° 240° 3 kt METAR KFHR 061753Z AUTO 24003KT 10SM OVC022 04/03 A3013 RMK AO2 RAE20 SLP203 P0001 60003 T00440033 10044 20028 51013
08:53
M
3 °C 6 mi 1.800 ft 250° 250° 3 kt METAR KFHR 061653Z AUTO 25003KT 6SM -RA BR BKN018 OVC027 03/03 A3012 RMK AO2 RAE12B48 SLP199 P0000 T00330028
07:53
M
3 °C 6 mi 1.500 ft Var 000° 0 kt METAR KFHR 061553Z AUTO 00000KT 6SM -RA BR FEW009 BKN015 OVC027 03/02 A3011 RMK AO2 RAB18 SLP196 P0001 T00280022
07:46
M
3 °C 6 mi 1.300 ft 280° 280° 3 kt SPECI KFHR 061546Z AUTO 28003KT 6SM -RA BR FEW009 BKN013 OVC025 03/02 A3010 RMK AO2 RAB18 P0000 T00280022
06:53
M
3 °C 10 mi 2.300 ft 010° 010° 3 kt METAR KFHR 061453Z AUTO 01003KT 10SM FEW008 OVC023 03/02 A3009 RMK AO2 SLP190 P0001 60001 T00280017 55000
06:25
I
3 °C 10 mi 800 ft 020° 020° 3 kt METAR KFHR 061425Z AUTO 02003KT 10SM OVC008 03/02 A3008 RMK AO2 T00280017
05:53
M
3 °C 10 mi 1.100 ft Var 000° 0 kt METAR KFHR 061353Z AUTO 00000KT 10SM OVC011 03/02 A3008 RMK AO2 RAB08E44 SLP189 P0000 T00280017
05:01
M
3 °C 10 mi 1.400 ft Var 000° 0 kt METAR KFHR 061301Z AUTO 00000KT 10SM OVC014 03/01 A3009 RMK AO2 T00280011
04:53
M
3 °C 10 mi 1.500 ft Var 000° 0 kt METAR KFHR 061253Z AUTO 00000KT 10SM OVC015 03/01 A3009 RMK AO2 SLP191 T00280011
03:53
M
2 °C 10 mi 2.000 ft Var 000° 0 kt METAR KFHR 061153Z AUTO 00000KT 10SM OVC020 02/01 A3009 RMK AO2 RAB1054E1055UPB1055E07 SLP190 P0000 60000 T00220011 10033 20022 58000
02:53
M
2 °C 10 mi 2.300 ft Var 000° 0 kt METAR KFHR 061053Z AUTO 00000KT 10SM OVC023 02/01 A3010 RMK AO2 RAB37E52UPB38E41 SLP193 P0000 T00220006
01:53
M
3 °C 10 mi 2.200 ft Var 000° 0 kt METAR KFHR 060953Z AUTO 00000KT 10SM OVC022 03/01 A3009 RMK AO2 SLP191 T00280006
00:53
M
3 °C 10 mi 1.900 ft Var 000° 0 kt METAR KFHR 060853Z AUTO 00000KT 10SM OVC019 03/00 A3009 RMK AO2 SLP191 T00280000 51003

5 de dezembro de 2022

Hora Código Clima Temp. Visibilidade Tecto Vento METAR/SPECI
23:53
M
3 °C 10 mi 1.800 ft 020° 020° 3 kt METAR KFHR 060753Z AUTO 02003KT 10SM OVC018 03/M01 A3009 RMK AO2 SLP190 T00281006 400440022
22:53
M
3 °C 10 mi 2.500 ft Var 000° 0 kt METAR KFHR 060653Z AUTO 00000KT 10SM SCT016 BKN025 OVC042 03/M01 A3009 RMK AO2 SLP189 T00281011
22:29
V
3 °C 10 mi 4.300 ft Var 000° 0 kt METAR KFHR 060629Z AUTO 00000KT 10SM SCT017 SCT034 OVC043 03/M01 A3009 RMK AO2 T00281011
21:53
M
3 °C 10 mi 2.300 ft Var 000° 0 kt METAR KFHR 060553Z AUTO 00000KT 10SM SCT016 BKN023 OVC042 03/M01 A3008 RMK AO2 SLP188 T00281011 10033 20022 53012
21:12
M
3 °C 10 mi 1.700 ft Var 000° 0 kt METAR KFHR 060512Z AUTO 00000KT 10SM BKN017 BKN025 OVC039 03/M02 A3007 RMK AO2 T00281017
20:53
V
3 °C 10 mi 3.800 ft Var 000° 0 kt METAR KFHR 060453Z AUTO 00000KT 10SM FEW025 OVC038 03/M02 A3007 RMK AO2 SLP183 T00281017
20:13
V
3 °C 10 mi 3.900 ft Var 000° 0 kt METAR KFHR 060413Z AUTO 00000KT 10SM SCT022 OVC039 03/M02 A3006 RMK AO2 T00331022
19:53
M
3 °C 10 mi 2.200 ft Var 000° 0 kt METAR KFHR 060353Z AUTO 00000KT 10SM BKN022 OVC037 03/M03 A3006 RMK AO2 SLP180 T00331028
19:18
M
3 °C 10 mi 2.100 ft Var 000° 0 kt METAR KFHR 060318Z AUTO 00000KT 10SM BKN021 BKN026 OVC039 03/M02 A3005 RMK AO2 T00281022
19:07
V
3 °C 10 mi 3.200 ft 310° 310° 3 kt METAR KFHR 060307Z AUTO 31003KT 10SM SCT026 BKN032 OVC039 03/M02 A3005 RMK AO2 T00281022
18:53
M
2 °C 10 mi 2.900 ft Var 000° 0 kt METAR KFHR 060253Z AUTO 00000KT 10SM BKN029 OVC036 02/M02 A3005 RMK AO2 SLP176 T00221017 50001
18:09
V
3 °C 10 mi 3.500 ft Var 000° 0 kt METAR KFHR 060209Z AUTO 00000KT 10SM SCT027 OVC035 03/M02 A3005 RMK AO2 T00281017
18:02
M
3 °C 10 mi 2.700 ft Var 000° 0 kt METAR KFHR 060202Z AUTO 00000KT 10SM BKN027 OVC035 03/M02 A3005 RMK AO2 T00281017
17:53
V
3 °C 10 mi 3.500 ft Var 000° 0 kt METAR KFHR 060153Z AUTO 00000KT 10SM SCT027 OVC035 03/M02 A3005 RMK AO2 SLP177 T00281017
17:48
V
3 °C 10 mi 3.500 ft Var 000° 0 kt SPECI KFHR 060148Z AUTO 00000KT 10SM FEW027 OVC035 03/M02 A3005 RMK AO2
17:41
M
3 °C 10 mi 2.700 ft Var 000° 0 kt METAR KFHR 060141Z AUTO 00000KT 10SM BKN027 OVC035 03/M02 A3005 RMK AO2 T00281017
16:53
V
3 °C 10 mi 3.200 ft Var 000° 0 kt METAR KFHR 060053Z AUTO 00000KT 10SM OVC032 03/M02 A3004 RMK AO2 SLP174 T00331022
16:46
V
3 °C 10 mi 3.000 ft 300° 300° 3 kt SPECI KFHR 060046Z AUTO 30003KT 10SM BKN030 OVC035 03/M02 A3004 RMK AO2 T00331022
16:23
M
3 °C 10 mi 2.800 ft 360° 360° 3 kt METAR KFHR 060023Z AUTO 36003KT 10SM OVC028 03/M03 A3004 RMK AO2 T00331028
15:53
V
3 °C 10 mi 3.000 ft Var 000° 0 kt METAR KFHR 052353Z AUTO 00000KT 10SM OVC030 03/M03 A3004 RMK AO2 SLP175 T00331028 10044 20033 53001
14:53
V
4 °C 10 mi 3.400 ft Var 000° 0 kt METAR KFHR 052253Z AUTO 00000KT 10SM OVC034 04/M01 A3003 RMK AO2 SLP172 T00391011
13:53
V
4 °C 10 mi 3.400 ft 010° 010° 4 kt METAR KFHR 052153Z AUTO 01004KT 10SM OVC034 04/M01 A3003 RMK AO2 SLP171 T00391011
12:53
V
4 °C 10 mi 3.200 ft Var Var 4 kt METAR KFHR 052053Z AUTO VRB04KT 10SM OVC032 04/M01 A3004 RMK AO2 SLP174 T00391011 58003
11:53
V
4 °C 10 mi 3.200 ft 020° 020° 4 kt METAR KFHR 051953Z AUTO 02004KT 10SM FEW022 OVC032 04/M01 A3004 RMK AO2 SLP175 T00441006
10:53
V
4 °C 10 mi 3.300 ft Var 000° 0 kt METAR KFHR 051853Z AUTO 00000KT 10SM OVC033 04/00 A3005 RMK AO2 SLP178 T00440000
09:53
V
3 °C 10 mi 3.300 ft Var 000° 0 kt METAR KFHR 051753Z AUTO 00000KT 10SM OVC033 03/01 A3005 RMK AO2 SLP177 T00330006 10033 20022 51005
08:53
V
3 °C 10 mi 3.200 ft Var 000° 0 kt METAR KFHR 051653Z AUTO 00000KT 10SM FEW012 SCT021 OVC032 03/01 A3005 RMK AO2 SLP176 T00330011
08:15
V
3 °C 10 mi 3.100 ft Var 000° 0 kt METAR KFHR 051615Z AUTO 00000KT 10SM SCT021 OVC031 03/01 A3005 RMK AO2 T00280006
07:53
M
2 °C 10 mi 2.000 ft Var 000° 0 kt METAR KFHR 051553Z AUTO 00000KT 10SM BKN020 OVC030 02/01 A3004 RMK AO2 SLP174 T00220006
07:38
M
2 °C 10 mi 2.100 ft Var 000° 0 kt METAR KFHR 051538Z AUTO 00000KT 10SM BKN021 OVC031 02/01 A3004 RMK AO2 T00220006
06:53
V
3 °C 10 mi 3.000 ft Var 000° 0 kt METAR KFHR 051453Z AUTO 00000KT 10SM OVC030 03/00 A3004 RMK AO2 SLP172 T00280000 50000
05:53
M
3 °C 10 mi 2.500 ft 050° 050° 4 kt METAR KFHR 051353Z AUTO 05004KT 10SM OVC025 03/01 A3004 RMK AO2 SLP174 T00280006 $
04:53
M
3 °C 10 mi 2.600 ft Var 000° 0 kt METAR KFHR 051253Z AUTO 00000KT 10SM OVC026 03/01 A3003 RMK AO2 SLP171 T00280006 $
03:53
M
3 °C 10 mi 2.000 ft Var 000° 0 kt METAR KFHR 051153Z AUTO 00000KT 10SM OVC020 03/00 A3004 RMK AO2 SLP172 T00280000 10033 20011 $
02:53
M
3 °C 10 mi 1.600 ft Var 000° 0 kt METAR KFHR 051053Z AUTO 00000KT 10SM OVC016 03/00 A3004 RMK AO2 SLP172 T00280000 $
01:53
M
3 °C 10 mi 1.900 ft Var 000° 0 kt METAR KFHR 050953Z AUTO 00000KT 10SM OVC019 03/00 A3004 RMK AO2 SLP173 T00280000 $
01:39
M
3 °C 10 mi 1.900 ft Var 000° 0 kt METAR KFHR 050939Z AUTO 00000KT 10SM OVC019 03/00 A3004 RMK AO2 T00280000 $
00:53
M
2 °C 10 mi 1.900 ft Var 000° 0 kt METAR KFHR 050853Z AUTO 00000KT 10SM OVC019 02/M01 A3004 RMK AO2 SLP173 T00221006 51006

4 de dezembro de 2022

Hora Código Clima Temp. Visibilidade Tecto Vento METAR/SPECI
22:53
M
2 °C 10 mi 2.300 ft 040° 040° 3 kt METAR KFHR 050653Z AUTO 04003KT 10SM OVC023 02/M02 A3004 RMK AO2 SLP172 T00221017
21:53
M
2 °C 10 mi 2.200 ft Var 000° 0 kt METAR KFHR 050553Z AUTO 00000KT 10SM OVC022 02/M02 A3002 RMK AO2 SLP167 T00171022 10022 21011 51005
20:53
M
2 °C 10 mi 2.300 ft Var 000° 0 kt METAR KFHR 050453Z AUTO 00000KT 10SM OVC023 02/M02 A3002 RMK AO2 SLP166 T00171022
19:53
M
2 °C 10 mi 2.400 ft Var 000° 0 kt METAR KFHR 050353Z AUTO 00000KT 10SM OVC024 02/M03 A3001 RMK AO2 SLP165 T00171028
18:53
M
1 °C 10 mi 2.400 ft Var 000° 0 kt METAR KFHR 050253Z AUTO 00000KT 10SM OVC024 01/M02 A3001 RMK AO2 SLP162 T00111022 53007
18:23
M
1 °C 10 mi 2.300 ft Var 000° 0 kt METAR KFHR 050223Z AUTO 00000KT 10SM BKN023 01/M03 A3000 RMK AO2 T00061028
18:01
V
-1 °C 10 mi - 010° 010° 3 kt METAR KFHR 050201Z AUTO 01003KT 10SM SCT024 M01/M03 A3000 RMK AO2 T10111033
17:53
M
-1 °C 10 mi 2.400 ft Var 000° 0 kt METAR KFHR 050153Z AUTO 00000KT 10SM BKN024 M01/M03 A3000 RMK AO2 SLP160 T10061028
17:38
M
1 °C 10 mi 2.400 ft Var 000° 0 kt METAR KFHR 050138Z AUTO 00000KT 10SM BKN024 01/M03 A3000 RMK AO2 T00061033
16:53
V
0 °C 10 mi - Var 000° 0 kt METAR KFHR 050053Z AUTO 00000KT 10SM CLR 00/M04 A2999 RMK AO2 SLP157 T00001039
15:53
V
1 °C 10 mi - Var 000° 0 kt METAR KFHR 042353Z AUTO 00000KT 10SM CLR 01/M04 A2999 RMK AO2 SLP155 T00061039 10050 20006 51006
14:53
V
3 °C 10 mi - Var 000° 0 kt METAR KFHR 042253Z AUTO 00000KT 10SM CLR 03/M03 A2998 RMK AO2 SLP152 T00281033
13:53
V
4 °C 10 mi - Var 000° 0 kt METAR KFHR 042153Z AUTO 00000KT 10SM CLR 04/M05 A2998 RMK AO2 SLP152 T00391050
12:53
V
4 °C 10 mi - 020° 020° 11 kt METAR KFHR 042053Z AUTO 02011KT 10SM CLR 04/M06 A2997 RMK AO2 SLP149 T00441056 58009
11:53
V
3 °C 10 mi - 030° 030° 8 kt METAR KFHR 041953Z AUTO 03008KT 10SM CLR 03/M06 A2999 RMK AO2 SLP157 T00331056
10:53
V
3 °C 10 mi - 030° 030° 9 kt METAR KFHR 041853Z AUTO 03009KT 10SM CLR 03/M06 A3000 RMK AO2 SLP159 T00331056
09:53
V
3 °C 10 mi - Var Var 5 kt METAR KFHR 041753Z AUTO VRB05KT 10SM CLR 03/M02 A2999 RMK AO2 SLP157 T00281017 10028 20000 58007
08:53
V
2 °C 10 mi - Var Var 4 kt METAR KFHR 041653Z AUTO VRB04KT 10SM CLR 02/M03 A3002 RMK AO2 SLP167 T00221028
07:53
V
2 °C 10 mi - 020° 020° 10 - 17 kt METAR KFHR 041553Z AUTO 02010G17KT 10SM CLR 02/M06 A3001 RMK AO2 SLP163 T00171061
06:53
V
2 °C 10 mi - 010° 010° 7 kt METAR KFHR 041453Z AUTO 01007KT 10SM CLR 02/M05 A3001 RMK AO2 SLP164 T00221050 56019
05:53
V
2 °C 10 mi - 360° 360° 9 - 17 kt METAR KFHR 041353Z AUTO 36009G17KT 10SM CLR 02/M04 A3002 RMK AO2 SLP165 T00221044
04:53
V
0 °C 10 mi - Var Var 3 kt METAR KFHR 041253Z AUTO VRB03KT 10SM CLR 00/M06 A3004 RMK AO2 SLP174 T00001061
03:53
V
1 °C 10 mi - Var Var 3 kt METAR KFHR 041153Z AUTO VRB03KT 10SM CLR 01/M06 A3007 RMK AO2 SLP183 70001 T00111056 10022 20000 56024
02:53
V
1 °C 10 mi - Var Var 3 kt METAR KFHR 041053Z AUTO VRB03KT 10SM CLR 01/M06 A3009 RMK AO2 SLP191 T00111061
01:53
V
1 °C 10 mi - Var 000° 0 kt METAR KFHR 040953Z AUTO 00000KT 10SM CLR 01/M05 A3010 RMK AO2 SLP195 T00061050

Nós e terceiros acompanhamos seu comportamento na internet em nosso site com cookies. Se você continuar, nós assumimos que você concorda com nosso política de cookies.